sensor_id;sensor_type;location;lat;lon;timestamp;P1;durP1;ratioP1;P2;durP2;ratioP2
8476;SDS011;4275;42.854;23.222;2023-06-22T00:01:19;17.30;;;16.10;;
8476;SDS011;4275;42.854;23.222;2023-06-22T00:03:47;17.80;;;16.50;;
8476;SDS011;4275;42.854;23.222;2023-06-22T00:06:14;17.27;;;16.08;;
8476;SDS011;4275;42.854;23.222;2023-06-22T00:08:41;17.45;;;16.25;;
8476;SDS011;4275;42.854;23.222;2023-06-22T00:11:08;17.23;;;16.02;;
8476;SDS011;4275;42.854;23.222;2023-06-22T00:13:37;18.25;;;16.95;;
8476;SDS011;4275;42.854;23.222;2023-06-22T00:16:04;17.92;;;16.63;;
8476;SDS011;4275;42.854;23.222;2023-06-22T00:18:31;18.80;;;17.45;;
8476;SDS011;4275;42.854;23.222;2023-06-22T00:20:58;18.50;;;17.20;;
8476;SDS011;4275;42.854;23.222;2023-06-22T00:23:26;18.35;;;17.05;;
8476;SDS011;4275;42.854;23.222;2023-06-22T00:25:53;18.50;;;17.20;;
8476;SDS011;4275;42.854;23.222;2023-06-22T00:28:21;18.80;;;17.50;;
8476;SDS011;4275;42.854;23.222;2023-06-22T00:30:50;18.40;;;17.20;;
8476;SDS011;4275;42.854;23.222;2023-06-22T00:33:16;17.98;;;16.77;;
8476;SDS011;4275;42.854;23.222;2023-06-22T00:35:43;17.52;;;16.38;;
8476;SDS011;4275;42.854;23.222;2023-06-22T00:38:10;16.65;;;15.55;;
8476;SDS011;4275;42.854;23.222;2023-06-22T00:40:38;17.33;;;16.13;;
8476;SDS011;4275;42.854;23.222;2023-06-22T00:43:05;17.67;;;16.48;;
8476;SDS011;4275;42.854;23.222;2023-06-22T00:45:32;17.25;;;16.15;;
8476;SDS011;4275;42.854;23.222;2023-06-22T00:48:01;17.05;;;15.95;;
8476;SDS011;4275;42.854;23.222;2023-06-22T00:50:30;17.60;;;16.40;;
8476;SDS011;4275;42.854;23.222;2023-06-22T00:53:02;17.98;;;16.70;;
8476;SDS011;4275;42.854;23.222;2023-06-22T00:55:33;17.85;;;16.60;;
8476;SDS011;4275;42.854;23.222;2023-06-22T00:58:04;17.67;;;16.48;;
8476;SDS011;4275;42.854;23.222;2023-06-22T01:00:35;17.77;;;16.58;;
8476;SDS011;4275;42.854;23.222;2023-06-22T01:03:04;17.75;;;16.48;;
8476;SDS011;4275;42.854;23.222;2023-06-22T01:05:34;16.60;;;15.50;;
8476;SDS011;4275;42.854;23.222;2023-06-22T01:08:11;18.00;;;16.80;;
8476;SDS011;4275;42.854;23.222;2023-06-22T01:10:48;17.40;;;16.20;;
8476;SDS011;4275;42.854;23.222;2023-06-22T01:13:20;17.15;;;16.05;;
8476;SDS011;4275;42.854;23.222;2023-06-22T01:15:55;16.50;;;15.48;;
8476;SDS011;4275;42.854;23.222;2023-06-22T01:18:28;16.30;;;15.30;;
8476;SDS011;4275;42.854;23.222;2023-06-22T01:20:58;16.30;;;15.30;;
8476;SDS011;4275;42.854;23.222;2023-06-22T01:23:29;16.30;;;15.30;;
8476;SDS011;4275;42.854;23.222;2023-06-22T01:26:06;16.27;;;15.27;;
8476;SDS011;4275;42.854;23.222;2023-06-22T01:28:45;15.70;;;14.80;;
8476;SDS011;4275;42.854;23.222;2023-06-22T01:31:15;16.30;;;15.30;;
8476;SDS011;4275;42.854;23.222;2023-06-22T01:33:45;15.43;;;14.52;;
8476;SDS011;4275;42.854;23.222;2023-06-22T01:36:14;15.35;;;14.45;;
8476;SDS011;4275;42.854;23.222;2023-06-22T01:38:43;15.15;;;14.25;;
8476;SDS011;4275;42.854;23.222;2023-06-22T01:41:12;14.60;;;13.80;;
8476;SDS011;4275;42.854;23.222;2023-06-22T01:43:39;14.80;;;14.00;;
8476;SDS011;4275;42.854;23.222;2023-06-22T01:46:08;14.70;;;13.90;;
8476;SDS011;4275;42.854;23.222;2023-06-22T01:48:36;14.60;;;13.80;;
8476;SDS011;4275;42.854;23.222;2023-06-22T01:51:04;14.70;;;13.90;;
8476;SDS011;4275;42.854;23.222;2023-06-22T01:53:32;14.50;;;13.70;;
8476;SDS011;4275;42.854;23.222;2023-06-22T01:55:59;14.70;;;13.90;;
8476;SDS011;4275;42.854;23.222;2023-06-22T01:58:26;14.43;;;13.63;;
8476;SDS011;4275;42.854;23.222;2023-06-22T02:00:56;14.80;;;14.00;;
8476;SDS011;4275;42.854;23.222;2023-06-22T02:03:31;14.40;;;13.70;;
8476;SDS011;4275;42.854;23.222;2023-06-22T02:06:02;14.50;;;13.80;;
8476;SDS011;4275;42.854;23.222;2023-06-22T02:08:35;14.23;;;13.52;;
8476;SDS011;4275;42.854;23.222;2023-06-22T02:11:06;14.48;;;13.77;;
8476;SDS011;4275;42.854;23.222;2023-06-22T02:13:36;14.13;;;13.43;;
8476;SDS011;4275;42.854;23.222;2023-06-22T02:16:08;14.13;;;13.43;;
8476;SDS011;4275;42.854;23.222;2023-06-22T02:18:37;13.77;;;13.07;;
8476;SDS011;4275;42.854;23.222;2023-06-22T02:21:05;14.10;;;13.40;;
8476;SDS011;4275;42.854;23.222;2023-06-22T02:23:32;14.07;;;13.38;;
8476;SDS011;4275;42.854;23.222;2023-06-22T02:26:01;14.30;;;13.60;;
8476;SDS011;4275;42.854;23.222;2023-06-22T02:28:28;14.10;;;13.40;;
8476;SDS011;4275;42.854;23.222;2023-06-22T02:30:55;14.35;;;13.65;;
8476;SDS011;4275;42.854;23.222;2023-06-22T02:33:22;14.18;;;13.48;;
8476;SDS011;4275;42.854;23.222;2023-06-22T02:35:51;13.50;;;12.90;;
8476;SDS011;4275;42.854;23.222;2023-06-22T02:38:18;13.15;;;12.55;;
8476;SDS011;4275;42.854;23.222;2023-06-22T02:40:45;13.50;;;12.90;;
8476;SDS011;4275;42.854;23.222;2023-06-22T02:43:12;13.40;;;12.80;;
8476;SDS011;4275;42.854;23.222;2023-06-22T02:45:39;12.90;;;12.40;;
8476;SDS011;4275;42.854;23.222;2023-06-22T02:48:06;13.30;;;12.80;;
8476;SDS011;4275;42.854;23.222;2023-06-22T02:50:33;13.18;;;12.68;;
8476;SDS011;4275;42.854;23.222;2023-06-22T02:53:02;13.10;;;12.60;;
8476;SDS011;4275;42.854;23.222;2023-06-22T02:55:29;13.45;;;12.85;;
8476;SDS011;4275;42.854;23.222;2023-06-22T02:57:56;13.15;;;12.63;;
8476;SDS011;4275;42.854;23.222;2023-06-22T03:00:24;13.02;;;12.52;;
8476;SDS011;4275;42.854;23.222;2023-06-22T03:02:56;13.00;;;12.50;;
8476;SDS011;4275;42.854;23.222;2023-06-22T03:05:23;13.30;;;12.80;;
8476;SDS011;4275;42.854;23.222;2023-06-22T03:07:51;12.35;;;11.85;;
8476;SDS011;4275;42.854;23.222;2023-06-22T03:10:19;12.68;;;12.18;;
8476;SDS011;4275;42.854;23.222;2023-06-22T03:12:46;12.05;;;11.65;;
8476;SDS011;4275;42.854;23.222;2023-06-22T03:15:13;12.27;;;11.77;;
8476;SDS011;4275;42.854;23.222;2023-06-22T03:17:42;12.80;;;12.30;;
8476;SDS011;4275;42.854;23.222;2023-06-22T03:20:09;13.20;;;12.70;;
8476;SDS011;4275;42.854;23.222;2023-06-22T03:22:37;13.13;;;12.63;;
8476;SDS011;4275;42.854;23.222;2023-06-22T03:25:06;13.70;;;13.10;;
8476;SDS011;4275;42.854;23.222;2023-06-22T03:27:40;13.75;;;13.15;;
8476;SDS011;4275;42.854;23.222;2023-06-22T03:30:08;13.40;;;12.80;;
8476;SDS011;4275;42.854;23.222;2023-06-22T03:32:39;13.40;;;12.80;;
8476;SDS011;4275;42.854;23.222;2023-06-22T03:35:08;14.30;;;13.60;;
8476;SDS011;4275;42.854;23.222;2023-06-22T03:37:35;15.10;;;14.30;;
8476;SDS011;4275;42.854;23.222;2023-06-22T03:40:02;15.55;;;14.65;;
8476;SDS011;4275;42.854;23.222;2023-06-22T03:42:33;15.95;;;15.05;;
8476;SDS011;4275;42.854;23.222;2023-06-22T03:45:03;15.27;;;14.38;;
8476;SDS011;4275;42.854;23.222;2023-06-22T03:47:30;14.77;;;13.98;;
8476;SDS011;4275;42.854;23.222;2023-06-22T03:50:01;15.30;;;14.40;;
8476;SDS011;4275;42.854;23.222;2023-06-22T03:52:28;15.50;;;14.60;;
8476;SDS011;4275;42.854;23.222;2023-06-22T03:54:56;15.45;;;14.55;;
8476;SDS011;4275;42.854;23.222;2023-06-22T03:57:22;15.68;;;14.75;;
8476;SDS011;4275;42.854;23.222;2023-06-22T03:59:49;16.45;;;15.45;;
8476;SDS011;4275;42.854;23.222;2023-06-22T04:02:18;17.33;;;16.13;;
8476;SDS011;4275;42.854;23.222;2023-06-22T04:04:45;18.20;;;16.90;;
8476;SDS011;4275;42.854;23.222;2023-06-22T04:07:12;18.67;;;17.27;;
8476;SDS011;4275;42.854;23.222;2023-06-22T04:09:39;20.13;;;18.52;;
8476;SDS011;4275;42.854;23.222;2023-06-22T04:12:06;20.75;;;19.05;;
8476;SDS011;4275;42.854;23.222;2023-06-22T04:14:34;21.33;;;19.45;;
8476;SDS011;4275;42.854;23.222;2023-06-22T04:17:01;21.63;;;19.63;;
8476;SDS011;4275;42.854;23.222;2023-06-22T04:19:29;22.40;;;20.40;;
8476;SDS011;4275;42.854;23.222;2023-06-22T04:21:56;23.67;;;21.48;;
8476;SDS011;4275;42.854;23.222;2023-06-22T04:24:23;25.33;;;22.83;;
8476;SDS011;4275;42.854;23.222;2023-06-22T04:26:50;25.88;;;23.27;;
8476;SDS011;4275;42.854;23.222;2023-06-22T04:29:20;25.30;;;22.70;;
8476;SDS011;4275;42.854;23.222;2023-06-22T05:01:30;26.20;;;23.40;;
8476;SDS011;4275;42.854;23.222;2023-06-22T05:03:57;24.48;;;21.98;;
8476;SDS011;4275;42.854;23.222;2023-06-22T05:06:26;26.80;;;23.90;;
8476;SDS011;4275;42.854;23.222;2023-06-22T05:08:54;27.50;;;24.60;;
8476;SDS011;4275;42.854;23.222;2023-06-22T05:11:24;26.25;;;23.42;;
8476;SDS011;4275;42.854;23.222;2023-06-22T05:13:51;26.42;;;23.52;;
8476;SDS011;4275;42.854;23.222;2023-06-22T05:16:19;26.42;;;23.52;;
8476;SDS011;4275;42.854;23.222;2023-06-22T05:18:51;26.70;;;23.90;;
8476;SDS011;4275;42.854;23.222;2023-06-22T05:21:21;26.17;;;23.38;;
8476;SDS011;4275;42.854;23.222;2023-06-22T05:23:49;26.67;;;23.77;;
8476;SDS011;4275;42.854;23.222;2023-06-22T05:26:17;26.38;;;23.50;;
8476;SDS011;4275;42.854;23.222;2023-06-22T05:28:44;27.70;;;24.70;;
8476;SDS011;4275;42.854;23.222;2023-06-22T05:31:12;27.58;;;24.67;;
8476;SDS011;4275;42.854;23.222;2023-06-22T05:33:40;27.60;;;24.70;;
8476;SDS011;4275;42.854;23.222;2023-06-22T05:36:08;28.90;;;25.90;;
8476;SDS011;4275;42.854;23.222;2023-06-22T05:38:36;30.15;;;27.15;;
8476;SDS011;4275;42.854;23.222;2023-06-22T05:41:03;25.08;;;22.48;;
8476;SDS011;4275;42.854;23.222;2023-06-22T05:43:30;26.08;;;23.38;;
8476;SDS011;4275;42.854;23.222;2023-06-22T05:45:57;25.35;;;22.77;;
8476;SDS011;4275;42.854;23.222;2023-06-22T05:48:24;24.77;;;22.38;;
8476;SDS011;4275;42.854;23.222;2023-06-22T05:50:52;25.17;;;22.67;;
8476;SDS011;4275;42.854;23.222;2023-06-22T05:53:20;25.63;;;23.13;;
8476;SDS011;4275;42.854;23.222;2023-06-22T05:55:47;25.90;;;23.30;;
8476;SDS011;4275;42.854;23.222;2023-06-22T05:58:14;24.52;;;22.13;;
8476;SDS011;4275;42.854;23.222;2023-06-22T06:00:42;25.20;;;22.70;;
8476;SDS011;4275;42.854;23.222;2023-06-22T06:03:09;24.10;;;21.70;;
8476;SDS011;4275;42.854;23.222;2023-06-22T06:05:37;23.23;;;20.92;;
8476;SDS011;4275;42.854;23.222;2023-06-22T06:08:05;26.15;;;23.45;;
8476;SDS011;4275;42.854;23.222;2023-06-22T06:10:33;26.27;;;23.58;;
8476;SDS011;4275;42.854;23.222;2023-06-22T06:13:02;26.00;;;23.30;;
8476;SDS011;4275;42.854;23.222;2023-06-22T06:15:29;26.63;;;23.92;;
8476;SDS011;4275;42.854;23.222;2023-06-22T06:17:57;24.65;;;22.08;;
8476;SDS011;4275;42.854;23.222;2023-06-22T06:20:25;25.27;;;22.60;;
8476;SDS011;4275;42.854;23.222;2023-06-22T06:22:53;25.45;;;22.85;;
8476;SDS011;4275;42.854;23.222;2023-06-22T06:25:20;25.38;;;22.77;;
8476;SDS011;4275;42.854;23.222;2023-06-22T06:27:49;25.00;;;22.40;;
8476;SDS011;4275;42.854;23.222;2023-06-22T06:30:19;25.15;;;22.55;;
8476;SDS011;4275;42.854;23.222;2023-06-22T06:32:46;26.80;;;23.98;;
8476;SDS011;4275;42.854;23.222;2023-06-22T06:35:14;25.38;;;22.67;;
8476;SDS011;4275;42.854;23.222;2023-06-22T06:37:42;25.95;;;23.15;;
8476;SDS011;4275;42.854;23.222;2023-06-22T06:40:10;25.02;;;22.33;;
8476;SDS011;4275;42.854;23.222;2023-06-22T06:42:39;25.08;;;22.38;;
8476;SDS011;4275;42.854;23.222;2023-06-22T06:45:09;26.33;;;23.48;;
8476;SDS011;4275;42.854;23.222;2023-06-22T06:47:36;26.88;;;23.98;;
8476;SDS011;4275;42.854;23.222;2023-06-22T06:50:04;27.42;;;24.50;;
8476;SDS011;4275;42.854;23.222;2023-06-22T06:52:32;27.27;;;24.27;;
8476;SDS011;4275;42.854;23.222;2023-06-22T06:54:59;28.35;;;25.35;;
8476;SDS011;4275;42.854;23.222;2023-06-22T06:57:26;26.20;;;23.35;;
8476;SDS011;4275;42.854;23.222;2023-06-22T06:59:54;26.70;;;23.38;;
8476;SDS011;4275;42.854;23.222;2023-06-22T07:02:23;26.05;;;22.98;;
8476;SDS011;4275;42.854;23.222;2023-06-22T07:04:51;26.85;;;23.42;;
8476;SDS011;4275;42.854;23.222;2023-06-22T07:07:18;25.92;;;23.13;;
8476;SDS011;4275;42.854;23.222;2023-06-22T07:09:45;25.98;;;22.95;;
8476;SDS011;4275;42.854;23.222;2023-06-22T07:12:12;26.75;;;23.85;;
8476;SDS011;4275;42.854;23.222;2023-06-22T07:14:39;26.75;;;23.67;;
8476;SDS011;4275;42.854;23.222;2023-06-22T07:17:06;33.03;;;29.42;;
8476;SDS011;4275;42.854;23.222;2023-06-22T07:19:34;26.75;;;23.65;;
8476;SDS011;4275;42.854;23.222;2023-06-22T07:22:01;26.55;;;23.75;;
8476;SDS011;4275;42.854;23.222;2023-06-22T07:24:28;25.50;;;22.80;;
8476;SDS011;4275;42.854;23.222;2023-06-22T07:26:55;25.90;;;23.10;;
8476;SDS011;4275;42.854;23.222;2023-06-22T07:29:24;25.25;;;22.55;;
8476;SDS011;4275;42.854;23.222;2023-06-22T07:31:52;24.73;;;22.02;;
8476;SDS011;4275;42.854;23.222;2023-06-22T07:34:21;24.48;;;21.75;;
8476;SDS011;4275;42.854;23.222;2023-06-22T07:36:50;24.95;;;22.25;;
8476;SDS011;4275;42.854;23.222;2023-06-22T07:39:17;23.83;;;21.23;;
8476;SDS011;4275;42.854;23.222;2023-06-22T07:41:44;25.25;;;22.55;;
8476;SDS011;4275;42.854;23.222;2023-06-22T07:44:11;24.58;;;21.98;;
8476;SDS011;4275;42.854;23.222;2023-06-22T07:46:37;25.60;;;22.90;;
8476;SDS011;4275;42.854;23.222;2023-06-22T07:49:04;25.20;;;22.50;;
8476;SDS011;4275;42.854;23.222;2023-06-22T07:51:33;26.20;;;23.40;;
8476;SDS011;4275;42.854;23.222;2023-06-22T07:54:01;27.50;;;24.60;;
8476;SDS011;4275;42.854;23.222;2023-06-22T07:56:28;25.08;;;21.83;;
8476;SDS011;4275;42.854;23.222;2023-06-22T07:58:55;24.75;;;22.05;;
8476;SDS011;4275;42.854;23.222;2023-06-22T08:01:24;27.55;;;24.75;;
8476;SDS011;4275;42.854;23.222;2023-06-22T08:03:51;25.98;;;23.17;;
8476;SDS011;4275;42.854;23.222;2023-06-22T08:06:18;25.75;;;22.08;;
8476;SDS011;4275;42.854;23.222;2023-06-22T08:08:45;25.70;;;22.90;;
8476;SDS011;4275;42.854;23.222;2023-06-22T08:11:14;24.92;;;22.08;;
8476;SDS011;4275;42.854;23.222;2023-06-22T08:13:41;28.25;;;25.25;;
8476;SDS011;4275;42.854;23.222;2023-06-22T08:16:08;29.00;;;25.90;;
8476;SDS011;4275;42.854;23.222;2023-06-22T08:18:35;28.48;;;25.58;;
8476;SDS011;4275;42.854;23.222;2023-06-22T08:21:02;26.55;;;23.15;;
8476;SDS011;4275;42.854;23.222;2023-06-22T08:23:29;26.83;;;23.35;;
8476;SDS011;4275;42.854;23.222;2023-06-22T08:25:56;26.13;;;23.25;;
8476;SDS011;4275;42.854;23.222;2023-06-22T08:28:24;28.05;;;24.80;;
8476;SDS011;4275;42.854;23.222;2023-06-22T08:30:51;27.05;;;24.15;;
8476;SDS011;4275;42.854;23.222;2023-06-22T08:33:20;27.67;;;24.25;;
8476;SDS011;4275;42.854;23.222;2023-06-22T08:35:48;26.27;;;23.23;;
8476;SDS011;4275;42.854;23.222;2023-06-22T08:38:15;25.20;;;22.50;;
8476;SDS011;4275;42.854;23.222;2023-06-22T08:40:44;25.55;;;22.75;;
8476;SDS011;4275;42.854;23.222;2023-06-22T08:43:10;25.75;;;23.00;;
8476;SDS011;4275;42.854;23.222;2023-06-22T08:45:39;25.45;;;22.65;;
8476;SDS011;4275;42.854;23.222;2023-06-22T08:48:06;28.83;;;25.00;;
8476;SDS011;4275;42.854;23.222;2023-06-22T08:50:33;28.17;;;23.90;;
8476;SDS011;4275;42.854;23.222;2023-06-22T08:52:59;26.50;;;23.55;;
8476;SDS011;4275;42.854;23.222;2023-06-22T08:55:27;27.30;;;23.35;;
8476;SDS011;4275;42.854;23.222;2023-06-22T08:57:53;27.02;;;23.42;;
8476;SDS011;4275;42.854;23.222;2023-06-22T09:00:20;27.13;;;23.73;;
8476;SDS011;4275;42.854;23.222;2023-06-22T09:02:49;29.20;;;26.00;;
8476;SDS011;4275;42.854;23.222;2023-06-22T09:05:16;28.50;;;24.67;;
8476;SDS011;4275;42.854;23.222;2023-06-22T09:07:43;29.38;;;25.33;;
8476;SDS011;4275;42.854;23.222;2023-06-22T09:10:10;30.25;;;27.05;;
8476;SDS011;4275;42.854;23.222;2023-06-22T09:12:37;28.75;;;24.85;;
8476;SDS011;4275;42.854;23.222;2023-06-22T09:15:06;29.05;;;25.20;;
8476;SDS011;4275;42.854;23.222;2023-06-22T09:17:33;27.80;;;24.80;;
8476;SDS011;4275;42.854;23.222;2023-06-22T09:20:04;27.92;;;24.77;;
8476;SDS011;4275;42.854;23.222;2023-06-22T09:22:34;28.95;;;25.27;;
8476;SDS011;4275;42.854;23.222;2023-06-22T09:25:02;30.05;;;26.60;;
8476;SDS011;4275;42.854;23.222;2023-06-22T09:27:29;28.92;;;25.27;;
8476;SDS011;4275;42.854;23.222;2023-06-22T09:29:56;28.10;;;24.20;;
8476;SDS011;4275;42.854;23.222;2023-06-22T09:32:23;29.27;;;24.77;;
8476;SDS011;4275;42.854;23.222;2023-06-22T09:34:50;29.20;;;24.67;;
8476;SDS011;4275;42.854;23.222;2023-06-22T09:37:19;28.67;;;24.92;;
8476;SDS011;4275;42.854;23.222;2023-06-22T09:39:46;29.90;;;25.55;;
8476;SDS011;4275;42.854;23.222;2023-06-22T09:42:13;29.63;;;25.33;;
8476;SDS011;4275;42.854;23.222;2023-06-22T09:44:40;29.05;;;24.58;;
8476;SDS011;4275;42.854;23.222;2023-06-22T09:47:07;28.98;;;24.38;;
8476;SDS011;4275;42.854;23.222;2023-06-22T09:49:34;27.67;;;23.25;;
8476;SDS011;4275;42.854;23.222;2023-06-22T09:52:01;28.25;;;23.50;;
8476;SDS011;4275;42.854;23.222;2023-06-22T09:54:29;27.35;;;23.83;;
8476;SDS011;4275;42.854;23.222;2023-06-22T09:56:56;29.55;;;24.90;;
8476;SDS011;4275;42.854;23.222;2023-06-22T09:59:23;29.55;;;25.10;;
8476;SDS011;4275;42.854;23.222;2023-06-22T10:01:50;29.15;;;24.15;;
8476;SDS011;4275;42.854;23.222;2023-06-22T10:04:17;29.90;;;24.77;;
8476;SDS011;4275;42.854;23.222;2023-06-22T10:06:44;30.00;;;24.80;;
8476;SDS011;4275;42.854;23.222;2023-06-22T10:09:11;30.48;;;25.38;;
8476;SDS011;4275;42.854;23.222;2023-06-22T10:11:39;31.90;;;27.17;;
8476;SDS011;4275;42.854;23.222;2023-06-22T10:14:06;33.50;;;29.90;;
8476;SDS011;4275;42.854;23.222;2023-06-22T10:16:33;34.17;;;30.48;;
8476;SDS011;4275;42.854;23.222;2023-06-22T10:19:02;32.78;;;27.80;;
8476;SDS011;4275;42.854;23.222;2023-06-22T10:21:29;30.27;;;25.65;;
8476;SDS011;4275;42.854;23.222;2023-06-22T10:23:56;32.03;;;27.55;;
8476;SDS011;4275;42.854;23.222;2023-06-22T10:26:24;31.42;;;25.85;;
8476;SDS011;4275;42.854;23.222;2023-06-22T10:28:55;31.08;;;25.65;;
8476;SDS011;4275;42.854;23.222;2023-06-22T10:31:22;31.35;;;25.73;;
8476;SDS011;4275;42.854;23.222;2023-06-22T10:33:49;30.67;;;25.45;;
8476;SDS011;4275;42.854;23.222;2023-06-22T10:36:16;31.05;;;26.23;;
8476;SDS011;4275;42.854;23.222;2023-06-22T10:38:43;30.73;;;25.85;;
8476;SDS011;4275;42.854;23.222;2023-06-22T10:41:10;31.15;;;26.92;;
8476;SDS011;4275;42.854;23.222;2023-06-22T10:43:37;30.77;;;26.38;;
8476;SDS011;4275;42.854;23.222;2023-06-22T10:46:06;32.38;;;28.17;;
8476;SDS011;4275;42.854;23.222;2023-06-22T10:48:33;30.95;;;26.42;;
8476;SDS011;4275;42.854;23.222;2023-06-22T10:51:00;30.05;;;25.40;;
8476;SDS011;4275;42.854;23.222;2023-06-22T10:53:27;30.55;;;24.92;;
8476;SDS011;4275;42.854;23.222;2023-06-22T10:55:54;30.48;;;25.05;;
8476;SDS011;4275;42.854;23.222;2023-06-22T10:58:21;30.73;;;25.30;;
8476;SDS011;4275;42.854;23.222;2023-06-22T11:00:48;31.05;;;26.33;;
8476;SDS011;4275;42.854;23.222;2023-06-22T11:03:16;31.20;;;26.33;;
8476;SDS011;4275;42.854;23.222;2023-06-22T11:05:43;32.45;;;27.38;;
8476;SDS011;4275;42.854;23.222;2023-06-22T11:08:11;32.17;;;27.08;;
8476;SDS011;4275;42.854;23.222;2023-06-22T11:10:38;32.75;;;28.05;;
8476;SDS011;4275;42.854;23.222;2023-06-22T11:13:05;30.58;;;26.05;;
8476;SDS011;4275;42.854;23.222;2023-06-22T11:15:35;31.42;;;26.73;;
8476;SDS011;4275;42.854;23.222;2023-06-22T11:18:02;30.73;;;26.27;;
8476;SDS011;4275;42.854;23.222;2023-06-22T11:20:32;31.70;;;26.85;;
8476;SDS011;4275;42.854;23.222;2023-06-22T11:23:03;33.72;;;30.02;;
8476;SDS011;4275;42.854;23.222;2023-06-22T11:25:31;29.92;;;25.90;;
8476;SDS011;4275;42.854;23.222;2023-06-22T11:28:00;31.58;;;28.02;;
8476;SDS011;4275;42.854;23.222;2023-06-22T11:30:28;30.75;;;26.42;;
8476;SDS011;4275;42.854;23.222;2023-06-22T11:32:56;29.38;;;25.08;;
8476;SDS011;4275;42.854;23.222;2023-06-22T11:35:24;29.83;;;25.85;;
8476;SDS011;4275;42.854;23.222;2023-06-22T11:37:55;29.90;;;25.80;;
8476;SDS011;4275;42.854;23.222;2023-06-22T11:40:23;30.25;;;25.85;;
8476;SDS011;4275;42.854;23.222;2023-06-22T11:42:50;29.55;;;25.17;;
8476;SDS011;4275;42.854;23.222;2023-06-22T11:45:17;30.00;;;25.50;;
8476;SDS011;4275;42.854;23.222;2023-06-22T11:47:45;37.55;;;33.72;;
8476;SDS011;4275;42.854;23.222;2023-06-22T11:50:12;37.88;;;34.67;;
8476;SDS011;4275;42.854;23.222;2023-06-22T11:52:39;29.65;;;27.35;;
8476;SDS011;4275;42.854;23.222;2023-06-22T11:55:08;28.95;;;26.65;;
8476;SDS011;4275;42.854;23.222;2023-06-22T11:57:36;20.88;;;19.60;;
8476;SDS011;4275;42.854;23.222;2023-06-22T12:00:04;20.88;;;19.60;;
8476;SDS011;4275;42.854;23.222;2023-06-22T12:02:42;20.75;;;19.45;;
8476;SDS011;4275;42.854;23.222;2023-06-22T12:05:10;20.15;;;19.05;;
8476;SDS011;4275;42.854;23.222;2023-06-22T12:07:37;19.95;;;18.95;;
8476;SDS011;4275;42.854;23.222;2023-06-22T12:10:05;19.33;;;18.42;;
8476;SDS011;4275;42.854;23.222;2023-06-22T12:12:34;17.70;;;16.90;;
8476;SDS011;4275;42.854;23.222;2023-06-22T12:15:01;17.52;;;16.83;;
8476;SDS011;4275;42.854;23.222;2023-06-22T12:17:29;16.90;;;16.10;;
8476;SDS011;4275;42.854;23.222;2023-06-22T12:19:56;17.65;;;16.75;;
8476;SDS011;4275;42.854;23.222;2023-06-22T12:22:23;16.00;;;15.10;;
8476;SDS011;4275;42.854;23.222;2023-06-22T12:24:50;16.52;;;15.55;;
8476;SDS011;4275;42.854;23.222;2023-06-22T12:27:17;15.45;;;14.65;;
8476;SDS011;4275;42.854;23.222;2023-06-22T12:29:46;12.30;;;11.80;;
8476;SDS011;4275;42.854;23.222;2023-06-22T12:32:13;14.85;;;14.05;;
8476;SDS011;4275;42.854;23.222;2023-06-22T12:34:41;16.05;;;15.05;;
8476;SDS011;4275;42.854;23.222;2023-06-22T12:37:08;17.17;;;15.98;;
8476;SDS011;4275;42.854;23.222;2023-06-22T12:39:35;17.90;;;16.50;;
8476;SDS011;4275;42.854;23.222;2023-06-22T12:42:02;20.73;;;18.83;;
8476;SDS011;4275;42.854;23.222;2023-06-22T12:44:30;22.80;;;20.70;;
8476;SDS011;4275;42.854;23.222;2023-06-22T12:46:59;23.92;;;21.52;;
8476;SDS011;4275;42.854;23.222;2023-06-22T12:49:26;21.25;;;19.25;;
8476;SDS011;4275;42.854;23.222;2023-06-22T12:51:53;19.38;;;17.77;;
8476;SDS011;4275;42.854;23.222;2023-06-22T12:54:19;18.35;;;16.92;;
8476;SDS011;4275;42.854;23.222;2023-06-22T12:56:46;19.38;;;17.67;;
8476;SDS011;4275;42.854;23.222;2023-06-22T12:59:13;18.42;;;16.80;;
8476;SDS011;4275;42.854;23.222;2023-06-22T13:01:42;19.17;;;17.38;;
8476;SDS011;4275;42.854;23.222;2023-06-22T13:04:12;17.15;;;15.85;;
8476;SDS011;4275;42.854;23.222;2023-06-22T13:06:40;16.15;;;15.05;;
8476;SDS011;4275;42.854;23.222;2023-06-22T13:09:07;16.50;;;15.40;;
8476;SDS011;4275;42.854;23.222;2023-06-22T13:11:36;16.50;;;15.40;;
8476;SDS011;4275;42.854;23.222;2023-06-22T13:14:03;15.10;;;14.20;;
8476;SDS011;4275;42.854;23.222;2023-06-22T13:16:30;14.80;;;14.00;;
8476;SDS011;4275;42.854;23.222;2023-06-22T13:18:57;14.40;;;13.60;;
8476;SDS011;4275;42.854;23.222;2023-06-22T13:21:25;14.00;;;13.30;;
8476;SDS011;4275;42.854;23.222;2023-06-22T13:23:52;13.90;;;13.20;;
8476;SDS011;4275;42.854;23.222;2023-06-22T13:26:20;14.05;;;13.35;;
8476;SDS011;4275;42.854;23.222;2023-06-22T13:28:47;14.18;;;13.38;;
8476;SDS011;4275;42.854;23.222;2023-06-22T13:31:14;12.95;;;12.35;;
8476;SDS011;4275;42.854;23.222;2023-06-22T13:33:48;13.20;;;12.60;;
8476;SDS011;4275;42.854;23.222;2023-06-22T13:36:17;12.75;;;12.15;;
8476;SDS011;4275;42.854;23.222;2023-06-22T13:38:46;12.50;;;12.00;;
8476;SDS011;4275;42.854;23.222;2023-06-22T13:41:13;12.13;;;11.63;;
8476;SDS011;4275;42.854;23.222;2023-06-22T13:43:40;13.20;;;12.60;;
8476;SDS011;4275;42.854;23.222;2023-06-22T13:46:07;13.10;;;12.50;;
8476;SDS011;4275;42.854;23.222;2023-06-22T13:48:34;12.90;;;12.30;;
8476;SDS011;4275;42.854;23.222;2023-06-22T13:51:01;14.30;;;13.50;;
8476;SDS011;4275;42.854;23.222;2023-06-22T13:53:28;14.30;;;13.50;;
8476;SDS011;4275;42.854;23.222;2023-06-22T13:55:56;14.80;;;13.90;;
8476;SDS011;4275;42.854;23.222;2023-06-22T13:58:23;14.52;;;13.63;;
8476;SDS011;4275;42.854;23.222;2023-06-22T14:00:50;14.50;;;13.68;;
8476;SDS011;4275;42.854;23.222;2023-06-22T14:03:17;14.63;;;13.73;;
8476;SDS011;4275;42.854;23.222;2023-06-22T14:05:44;15.07;;;14.13;;
8476;SDS011;4275;42.854;23.222;2023-06-22T14:08:12;14.73;;;13.82;;
8476;SDS011;4275;42.854;23.222;2023-06-22T14:10:40;14.80;;;13.90;;
8476;SDS011;4275;42.854;23.222;2023-06-22T14:13:11;14.80;;;13.90;;
8476;SDS011;4275;42.854;23.222;2023-06-22T14:15:38;15.10;;;14.10;;
8476;SDS011;4275;42.854;23.222;2023-06-22T14:18:05;15.40;;;14.40;;
8476;SDS011;4275;42.854;23.222;2023-06-22T14:20:32;15.57;;;14.48;;
8476;SDS011;4275;42.854;23.222;2023-06-22T14:22:59;15.50;;;14.50;;
8476;SDS011;4275;42.854;23.222;2023-06-22T14:25:32;15.02;;;14.02;;
8476;SDS011;4275;42.854;23.222;2023-06-22T14:28:01;15.48;;;14.48;;
8476;SDS011;4275;42.854;23.222;2023-06-22T14:30:32;15.85;;;14.75;;
8476;SDS011;4275;42.854;23.222;2023-06-22T14:32:59;15.55;;;14.55;;
8476;SDS011;4275;42.854;23.222;2023-06-22T14:35:28;15.95;;;14.85;;
8476;SDS011;4275;42.854;23.222;2023-06-22T14:37:55;15.77;;;14.68;;
8476;SDS011;4275;42.854;23.222;2023-06-22T14:40:22;16.40;;;15.20;;
8476;SDS011;4275;42.854;23.222;2023-06-22T14:42:49;16.13;;;15.00;;
8476;SDS011;4275;42.854;23.222;2023-06-22T14:45:16;17.60;;;16.30;;
8476;SDS011;4275;42.854;23.222;2023-06-22T14:47:44;15.13;;;14.13;;
8476;SDS011;4275;42.854;23.222;2023-06-22T14:50:11;14.13;;;13.32;;
8476;SDS011;4275;42.854;23.222;2023-06-22T14:52:38;14.20;;;13.50;;
8476;SDS011;4275;42.854;23.222;2023-06-22T14:55:06;14.88;;;13.98;;
8476;SDS011;4275;42.854;23.222;2023-06-22T14:57:33;15.70;;;14.70;;
8476;SDS011;4275;42.854;23.222;2023-06-22T15:00:00;16.73;;;15.52;;
8476;SDS011;4275;42.854;23.222;2023-06-22T15:02:28;15.18;;;14.27;;
8476;SDS011;4275;42.854;23.222;2023-06-22T15:04:56;18.60;;;17.00;;
8476;SDS011;4275;42.854;23.222;2023-06-22T15:07:23;17.35;;;16.05;;